sensor_id;sensor_type;location;lat;lon;timestamp;temperature;humidity
27823;DHT22;29019;47.630;8.262;2024-01-11T00:00:06;19.20;42.20
27823;DHT22;29019;47.630;8.262;2024-01-11T00:04:07;19.30;41.70
27823;DHT22;29019;47.630;8.262;2024-01-11T00:08:08;19.40;41.40
27823;DHT22;29019;47.630;8.262;2024-01-11T00:12:09;19.50;41.20
27823;DHT22;29019;47.630;8.262;2024-01-11T00:16:09;19.50;41.00
27823;DHT22;29019;47.630;8.262;2024-01-11T00:20:10;19.50;40.80
27823;DHT22;29019;47.630;8.262;2024-01-11T00:24:11;19.50;40.70
27823;DHT22;29019;47.630;8.262;2024-01-11T00:28:12;19.50;40.60
27823;DHT22;29019;47.630;8.262;2024-01-11T00:32:13;19.50;40.50
27823;DHT22;29019;47.630;8.262;2024-01-11T00:36:19;19.50;40.50
27823;DHT22;29019;47.630;8.262;2024-01-11T00:40:20;19.40;41.40
27823;DHT22;29019;47.630;8.262;2024-01-11T00:44:22;19.20;42.30
27823;DHT22;29019;47.630;8.262;2024-01-11T00:48:22;19.30;42.10
27823;DHT22;29019;47.630;8.262;2024-01-11T00:52:23;19.30;41.60
27823;DHT22;29019;47.630;8.262;2024-01-11T00:56:24;19.40;41.20
27823;DHT22;29019;47.630;8.262;2024-01-11T01:00:25;19.50;41.00
27823;DHT22;29019;47.630;8.262;2024-01-11T01:04:25;19.50;40.90
27823;DHT22;29019;47.630;8.262;2024-01-11T01:08:26;19.50;40.80
27823;DHT22;29019;47.630;8.262;2024-01-11T01:12:27;19.50;40.70
27823;DHT22;29019;47.630;8.262;2024-01-11T01:16:29;19.50;40.50
27823;DHT22;29019;47.630;8.262;2024-01-11T01:20:29;19.50;40.50
27823;DHT22;29019;47.630;8.262;2024-01-11T01:24:31;19.50;40.40
27823;DHT22;29019;47.630;8.262;2024-01-11T01:28:32;19.40;41.40
27823;DHT22;29019;47.630;8.262;2024-01-11T01:32:33;19.20;42.20
27823;DHT22;29019;47.630;8.262;2024-01-11T01:36:33;19.30;41.90
27823;DHT22;29019;47.630;8.262;2024-01-11T01:40:34;19.30;41.30
27823;DHT22;29019;47.630;8.262;2024-01-11T01:44:35;19.40;41.10
27823;DHT22;29019;47.630;8.262;2024-01-11T01:48:36;19.40;40.90
27823;DHT22;29019;47.630;8.262;2024-01-11T01:52:37;19.50;40.70
27823;DHT22;29019;47.630;8.262;2024-01-11T01:56:39;19.50;40.60
27823;DHT22;29019;47.630;8.262;2024-01-11T02:00:40;19.50;40.50
27823;DHT22;29019;47.630;8.262;2024-01-11T02:04:42;19.50;40.30
27823;DHT22;29019;47.630;8.262;2024-01-11T02:08:43;19.50;40.30
27823;DHT22;29019;47.630;8.262;2024-01-11T02:12:45;19.50;40.30
27823;DHT22;29019;47.630;8.262;2024-01-11T02:16:46;19.40;41.40
27823;DHT22;29019;47.630;8.262;2024-01-11T02:20:46;19.20;42.10
27823;DHT22;29019;47.630;8.262;2024-01-11T02:24:47;19.20;41.60
27823;DHT22;29019;47.630;8.262;2024-01-11T02:28:48;19.30;41.20
27823;DHT22;29019;47.630;8.262;2024-01-11T02:32:50;19.40;40.90
27823;DHT22;29019;47.630;8.262;2024-01-11T02:36:51;19.40;40.70
27823;DHT22;29019;47.630;8.262;2024-01-11T02:40:52;19.50;40.60
27823;DHT22;29019;47.630;8.262;2024-01-11T02:44:52;19.50;40.50
27823;DHT22;29019;47.630;8.262;2024-01-11T02:48:53;19.40;40.30
27823;DHT22;29019;47.630;8.262;2024-01-11T02:52:54;19.50;40.30
27823;DHT22;29019;47.630;8.262;2024-01-11T02:56:54;19.50;40.20
27823;DHT22;29019;47.630;8.262;2024-01-11T03:00:57;19.50;40.30
27823;DHT22;29019;47.630;8.262;2024-01-11T03:04:58;19.30;41.40
27823;DHT22;29019;47.630;8.262;2024-01-11T03:08:59;19.10;41.90
27823;DHT22;29019;47.630;8.262;2024-01-11T03:12:59;19.20;41.50
27823;DHT22;29019;47.630;8.262;2024-01-11T03:17:00;19.30;41.10
27823;DHT22;29019;47.630;8.262;2024-01-11T03:21:02;19.40;40.80
27823;DHT22;29019;47.630;8.262;2024-01-11T03:25:03;19.40;40.60
27823;DHT22;29019;47.630;8.262;2024-01-11T03:29:03;19.40;40.40
27823;DHT22;29019;47.630;8.262;2024-01-11T03:33:04;19.40;40.30
27823;DHT22;29019;47.630;8.262;2024-01-11T03:37:06;19.50;40.30
27823;DHT22;29019;47.630;8.262;2024-01-11T03:41:08;19.50;40.20
27823;DHT22;29019;47.630;8.262;2024-01-11T03:45:12;19.50;40.10
27823;DHT22;29019;47.630;8.262;2024-01-11T03:49:12;19.50;40.20
27823;DHT22;29019;47.630;8.262;2024-01-11T03:53:13;19.30;41.30
27823;DHT22;29019;47.630;8.262;2024-01-11T03:57:14;19.10;41.80
27823;DHT22;29019;47.630;8.262;2024-01-11T04:01:14;19.20;41.30
27823;DHT22;29019;47.630;8.262;2024-01-11T04:05:15;19.30;40.90
27823;DHT22;29019;47.630;8.262;2024-01-11T04:09:16;19.40;40.60
27823;DHT22;29019;47.630;8.262;2024-01-11T04:13:17;19.40;40.40
27823;DHT22;29019;47.630;8.262;2024-01-11T04:17:18;19.40;40.30
27823;DHT22;29019;47.630;8.262;2024-01-11T04:21:26;19.50;40.20
27823;DHT22;29019;47.630;8.262;2024-01-11T04:25:29;19.40;40.10
27823;DHT22;29019;47.630;8.262;2024-01-11T04:29:30;19.40;40.00
27823;DHT22;29019;47.630;8.262;2024-01-11T04:33:31;19.50;39.90
27823;DHT22;29019;47.630;8.262;2024-01-11T04:37:31;19.40;40.20
27823;DHT22;29019;47.630;8.262;2024-01-11T04:41:34;19.30;41.30
27823;DHT22;29019;47.630;8.262;2024-01-11T04:45:35;19.10;41.50
27823;DHT22;29019;47.630;8.262;2024-01-11T04:49:36;19.20;41.10
27823;DHT22;29019;47.630;8.262;2024-01-11T04:53:38;19.30;40.70
27823;DHT22;29019;47.630;8.262;2024-01-11T04:57:39;19.40;40.50
27823;DHT22;29019;47.630;8.262;2024-01-11T05:01:40;19.40;40.30
27823;DHT22;29019;47.630;8.262;2024-01-11T05:05:42;19.50;40.10
27823;DHT22;29019;47.630;8.262;2024-01-11T05:09:43;19.50;40.00
27823;DHT22;29019;47.630;8.262;2024-01-11T05:13:43;19.50;39.90
27823;DHT22;29019;47.630;8.262;2024-01-11T05:17:48;19.50;39.80
27823;DHT22;29019;47.630;8.262;2024-01-11T05:21:48;19.50;39.70
27823;DHT22;29019;47.630;8.262;2024-01-11T05:25:49;19.50;40.20
27823;DHT22;29019;47.630;8.262;2024-01-11T05:29:50;19.20;41.10
27823;DHT22;29019;47.630;8.262;2024-01-11T05:33:50;19.20;41.30
27823;DHT22;29019;47.630;8.262;2024-01-11T05:37:51;19.30;40.90
27823;DHT22;29019;47.630;8.262;2024-01-11T05:41:52;19.40;40.60
27823;DHT22;29019;47.630;8.262;2024-01-11T05:45:52;19.40;40.30
27823;DHT22;29019;47.630;8.262;2024-01-11T05:49:53;19.50;40.10
27823;DHT22;29019;47.630;8.262;2024-01-11T05:53:54;19.50;40.00
27823;DHT22;29019;47.630;8.262;2024-01-11T05:57:55;19.50;39.80
27823;DHT22;29019;47.630;8.262;2024-01-11T06:01:56;19.50;39.70
27823;DHT22;29019;47.630;8.262;2024-01-11T06:06:01;19.50;39.70
27823;DHT22;29019;47.630;8.262;2024-01-11T06:10:02;19.50;39.60
27823;DHT22;29019;47.630;8.262;2024-01-11T06:14:05;19.50;40.20
27823;DHT22;29019;47.630;8.262;2024-01-11T06:18:06;19.20;41.20
27823;DHT22;29019;47.630;8.262;2024-01-11T06:22:06;19.20;41.20
27823;DHT22;29019;47.630;8.262;2024-01-11T06:26:07;19.30;40.80
27823;DHT22;29019;47.630;8.262;2024-01-11T06:30:08;19.40;40.40
27823;DHT22;29019;47.630;8.262;2024-01-11T06:34:09;19.40;40.10
27823;DHT22;29019;47.630;8.262;2024-01-11T06:38:10;19.40;39.90
27823;DHT22;29019;47.630;8.262;2024-01-11T06:42:10;19.50;39.90
27823;DHT22;29019;47.630;8.262;2024-01-11T06:46:11;19.50;39.70
27823;DHT22;29019;47.630;8.262;2024-01-11T06:50:13;19.50;39.70
27823;DHT22;29019;47.630;8.262;2024-01-11T06:54:14;19.50;39.60
27823;DHT22;29019;47.630;8.262;2024-01-11T06:58:16;19.50;39.60
27823;DHT22;29019;47.630;8.262;2024-01-11T07:02:16;19.40;40.30
27823;DHT22;29019;47.630;8.262;2024-01-11T07:06:17;19.20;41.20
27823;DHT22;29019;47.630;8.262;2024-01-11T07:10:18;19.10;41.10
27823;DHT22;29019;47.630;8.262;2024-01-11T07:14:19;19.30;40.70
27823;DHT22;29019;47.630;8.262;2024-01-11T07:18:19;19.30;40.30
27823;DHT22;29019;47.630;8.262;2024-01-11T07:22:20;19.40;40.10
27823;DHT22;29019;47.630;8.262;2024-01-11T07:26:21;19.50;39.90
27823;DHT22;29019;47.630;8.262;2024-01-11T07:30:21;19.50;39.70
27823;DHT22;29019;47.630;8.262;2024-01-11T07:34:22;19.50;39.60
27823;DHT22;29019;47.630;8.262;2024-01-11T07:38:24;19.50;39.50
27823;DHT22;29019;47.630;8.262;2024-01-11T07:42:25;19.50;39.40
27823;DHT22;29019;47.630;8.262;2024-01-11T07:46:26;19.50;39.30
27823;DHT22;29019;47.630;8.262;2024-01-11T07:50:26;19.40;40.20
27823;DHT22;29019;47.630;8.262;2024-01-11T07:54:28;19.20;41.10
27823;DHT22;29019;47.630;8.262;2024-01-11T07:58:29;19.20;41.00
27823;DHT22;29019;47.630;8.262;2024-01-11T08:02:29;19.30;40.60
27823;DHT22;29019;47.630;8.262;2024-01-11T08:06:30;19.30;40.20
27823;DHT22;29019;47.630;8.262;2024-01-11T08:10:31;19.40;40.00
27823;DHT22;29019;47.630;8.262;2024-01-11T08:14:31;19.40;39.80
27823;DHT22;29019;47.630;8.262;2024-01-11T08:18:32;19.50;39.70
27823;DHT22;29019;47.630;8.262;2024-01-11T08:22:33;19.40;39.60
27823;DHT22;29019;47.630;8.262;2024-01-11T08:26:36;19.50;39.50
27823;DHT22;29019;47.630;8.262;2024-01-11T08:30:37;19.50;39.40
27823;DHT22;29019;47.630;8.262;2024-01-11T08:34:38;19.50;39.40
27823;DHT22;29019;47.630;8.262;2024-01-11T08:38:39;19.30;40.70
27823;DHT22;29019;47.630;8.262;2024-01-11T08:42:41;19.10;41.10
27823;DHT22;29019;47.630;8.262;2024-01-11T08:46:43;19.20;40.90
27823;DHT22;29019;47.630;8.262;2024-01-11T08:50:44;19.30;40.40
27823;DHT22;29019;47.630;8.262;2024-01-11T08:54:44;19.40;40.10
27823;DHT22;29019;47.630;8.262;2024-01-11T08:58:45;19.40;39.90
27823;DHT22;29019;47.630;8.262;2024-01-11T09:02:47;19.40;39.70
27823;DHT22;29019;47.630;8.262;2024-01-11T09:06:47;19.50;39.70
27823;DHT22;29019;47.630;8.262;2024-01-11T09:10:48;19.50;39.50
27823;DHT22;29019;47.630;8.262;2024-01-11T09:14:49;19.50;39.40
27823;DHT22;29019;47.630;8.262;2024-01-11T09:18:49;19.50;39.40
27823;DHT22;29019;47.630;8.262;2024-01-11T09:22:50;19.50;39.30
27823;DHT22;29019;47.630;8.262;2024-01-11T09:26:51;19.30;40.20
27823;DHT22;29019;47.630;8.262;2024-01-11T09:30:52;19.10;41.00
27823;DHT22;29019;47.630;8.262;2024-01-11T09:34:52;19.20;40.70
27823;DHT22;29019;47.630;8.262;2024-01-11T09:38:53;19.30;40.20
27823;DHT22;29019;47.630;8.262;2024-01-11T09:42:54;19.40;40.00
27823;DHT22;29019;47.630;8.262;2024-01-11T09:46:55;19.40;39.70
27823;DHT22;29019;47.630;8.262;2024-01-11T09:50:58;19.40;39.70
27823;DHT22;29019;47.630;8.262;2024-01-11T09:55:00;19.40;39.50
27823;DHT22;29019;47.630;8.262;2024-01-11T09:59:02;19.50;39.50
27823;DHT22;29019;47.630;8.262;2024-01-11T10:03:06;19.50;39.40
27823;DHT22;29019;47.630;8.262;2024-01-11T10:07:08;19.50;39.30
27823;DHT22;29019;47.630;8.262;2024-01-11T10:11:09;19.40;39.30
27823;DHT22;29019;47.630;8.262;2024-01-11T10:15:10;19.30;40.30
27823;DHT22;29019;47.630;8.262;2024-01-11T10:19:12;19.10;41.00
27823;DHT22;29019;47.630;8.262;2024-01-11T10:23:14;19.20;40.60
27823;DHT22;29019;47.630;8.262;2024-01-11T10:27:15;19.30;40.20
27823;DHT22;29019;47.630;8.262;2024-01-11T10:31:16;19.40;39.90
27823;DHT22;29019;47.630;8.262;2024-01-11T10:35:16;19.40;39.70
27823;DHT22;29019;47.630;8.262;2024-01-11T10:39:25;19.40;39.60
27823;DHT22;29019;47.630;8.262;2024-01-11T10:43:26;19.50;39.50
27823;DHT22;29019;47.630;8.262;2024-01-11T10:47:30;19.50;39.40
27823;DHT22;29019;47.630;8.262;2024-01-11T10:51:32;19.50;39.30
27823;DHT22;29019;47.630;8.262;2024-01-11T10:55:36;19.50;39.20
27823;DHT22;29019;47.630;8.262;2024-01-11T10:59:38;19.50;39.30
27823;DHT22;29019;47.630;8.262;2024-01-11T11:03:40;19.30;40.50
27823;DHT22;29019;47.630;8.262;2024-01-11T11:07:45;19.10;40.90
27823;DHT22;29019;47.630;8.262;2024-01-11T11:11:47;19.20;40.50
27823;DHT22;29019;47.630;8.262;2024-01-11T11:15:48;19.30;40.10
27823;DHT22;29019;47.630;8.262;2024-01-11T11:19:52;19.40;39.70
27823;DHT22;29019;47.630;8.262;2024-01-11T11:23:54;19.40;39.60
27823;DHT22;29019;47.630;8.262;2024-01-11T11:27:57;19.40;39.40
27823;DHT22;29019;47.630;8.262;2024-01-11T11:31:57;19.50;39.40
27823;DHT22;29019;47.630;8.262;2024-01-11T11:35:59;19.40;39.30
27823;DHT22;29019;47.630;8.262;2024-01-11T11:40:00;19.50;39.20
27823;DHT22;29019;47.630;8.262;2024-01-11T11:44:02;19.50;39.10
27823;DHT22;29019;47.630;8.262;2024-01-11T11:52:33;19.20;40.60
27823;DHT22;29019;47.630;8.262;2024-01-11T11:56:34;19.10;40.70
27823;DHT22;29019;47.630;8.262;2024-01-11T12:00:36;19.20;40.30
27823;DHT22;29019;47.630;8.262;2024-01-11T12:04:38;19.30;40.00
27823;DHT22;29019;47.630;8.262;2024-01-11T12:08:42;19.40;39.70
27823;DHT22;29019;47.630;8.262;2024-01-11T12:12:42;19.40;39.60
27823;DHT22;29019;47.630;8.262;2024-01-11T12:16:43;19.40;39.40
27823;DHT22;29019;47.630;8.262;2024-01-11T12:20:45;19.40;39.30
27823;DHT22;29019;47.630;8.262;2024-01-11T12:24:46;19.50;39.80
27823;DHT22;29019;47.630;8.262;2024-01-11T12:28:47;19.50;39.20
27823;DHT22;29019;47.630;8.262;2024-01-11T12:32:48;19.50;39.10
27823;DHT22;29019;47.630;8.262;2024-01-11T12:36:49;19.40;39.60
27823;DHT22;29019;47.630;8.262;2024-01-11T12:40:50;19.10;40.70
27823;DHT22;29019;47.630;8.262;2024-01-11T12:44:51;19.10;40.60
27823;DHT22;29019;47.630;8.262;2024-01-11T12:48:52;19.30;40.20
27823;DHT22;29019;47.630;8.262;2024-01-11T12:53:07;19.40;39.80
27823;DHT22;29019;47.630;8.262;2024-01-11T12:57:20;19.40;39.60
27823;DHT22;29019;47.630;8.262;2024-01-11T13:01:21;19.40;39.50
27823;DHT22;29019;47.630;8.262;2024-01-11T13:05:21;19.40;39.30
27823;DHT22;29019;47.630;8.262;2024-01-11T13:09:22;19.50;39.20
27823;DHT22;29019;47.630;8.262;2024-01-11T13:13:23;19.50;39.20
27823;DHT22;29019;47.630;8.262;2024-01-11T13:17:25;19.50;39.10
27823;DHT22;29019;47.630;8.262;2024-01-11T13:21:27;19.50;39.00
27823;DHT22;29019;47.630;8.262;2024-01-11T13:25:28;19.30;39.90
27823;DHT22;29019;47.630;8.262;2024-01-11T13:29:30;19.10;41.30
27823;DHT22;29019;47.630;8.262;2024-01-11T13:33:30;19.20;40.50
27823;DHT22;29019;47.630;8.262;2024-01-11T13:37:31;19.30;40.10
27823;DHT22;29019;47.630;8.262;2024-01-11T13:41:32;19.40;39.70
27823;DHT22;29019;47.630;8.262;2024-01-11T13:45:33;19.40;39.50
27823;DHT22;29019;47.630;8.262;2024-01-11T13:49:36;19.40;39.40
27823;DHT22;29019;47.630;8.262;2024-01-11T13:53:37;19.40;39.30
27823;DHT22;29019;47.630;8.262;2024-01-11T13:57:38;19.40;39.20
27823;DHT22;29019;47.630;8.262;2024-01-11T14:01:39;19.40;39.10
27823;DHT22;29019;47.630;8.262;2024-01-11T14:05:39;19.50;39.00
27823;DHT22;29019;47.630;8.262;2024-01-11T14:09:40;19.50;39.00
27823;DHT22;29019;47.630;8.262;2024-01-11T14:13:41;19.30;39.90
27823;DHT22;29019;47.630;8.262;2024-01-11T14:17:41;19.10;40.70
27823;DHT22;29019;47.630;8.262;2024-01-11T14:21:43;19.20;40.40
27823;DHT22;29019;47.630;8.262;2024-01-11T14:25:44;19.30;40.00
27823;DHT22;29019;47.630;8.262;2024-01-11T14:29:44;19.40;39.70
27823;DHT22;29019;47.630;8.262;2024-01-11T14:33:45;19.40;39.40
27823;DHT22;29019;47.630;8.262;2024-01-11T14:37:46;19.40;39.30
27823;DHT22;29019;47.630;8.262;2024-01-11T14:41:47;19.40;39.20
27823;DHT22;29019;47.630;8.262;2024-01-11T14:45:48;19.50;39.20
27823;DHT22;29019;47.630;8.262;2024-01-11T14:49:49;19.40;39.00
27823;DHT22;29019;47.630;8.262;2024-01-11T14:53:49;19.50;39.00
27823;DHT22;29019;47.630;8.262;2024-01-11T14:57:54;19.50;38.90
27823;DHT22;29019;47.630;8.262;2024-01-11T15:01:54;19.30;40.00
27823;DHT22;29019;47.630;8.262;2024-01-11T15:05:55;19.10;40.70
27823;DHT22;29019;47.630;8.262;2024-01-11T15:09:56;19.20;40.30
27823;DHT22;29019;47.630;8.262;2024-01-11T15:13:57;19.30;39.90
27823;DHT22;29019;47.630;8.262;2024-01-11T15:17:58;19.40;39.60
27823;DHT22;29019;47.630;8.262;2024-01-11T15:21:59;19.40;39.40
27823;DHT22;29019;47.630;8.262;2024-01-11T15:25:59;19.40;39.20
27823;DHT22;29019;47.630;8.262;2024-01-11T15:30:01;19.40;39.10
27823;DHT22;29019;47.630;8.262;2024-01-11T15:34:02;19.40;39.00
27823;DHT22;29019;47.630;8.262;2024-01-11T15:38:03;19.40;39.00
27823;DHT22;29019;47.630;8.262;2024-01-11T15:42:04;19.40;38.90
27823;DHT22;29019;47.630;8.262;2024-01-11T15:46:05;19.40;39.00
27823;DHT22;29019;47.630;8.262;2024-01-11T15:50:06;19.30;40.10
27823;DHT22;29019;47.630;8.262;2024-01-11T15:54:10;19.10;40.70
27823;DHT22;29019;47.630;8.262;2024-01-11T15:58:11;19.10;40.30
27823;DHT22;29019;47.630;8.262;2024-01-11T16:02:12;19.30;40.00
27823;DHT22;29019;47.630;8.262;2024-01-11T16:06:14;19.30;39.70
27823;DHT22;29019;47.630;8.262;2024-01-11T16:10:16;19.30;39.50
27823;DHT22;29019;47.630;8.262;2024-01-11T16:14:16;19.40;39.30
27823;DHT22;29019;47.630;8.262;2024-01-11T16:18:17;19.40;39.10
27823;DHT22;29019;47.630;8.262;2024-01-11T16:22:18;19.50;39.00
27823;DHT22;29019;47.630;8.262;2024-01-11T16:26:22;19.50;38.90
27823;DHT22;29019;47.630;8.262;2024-01-11T16:30:22;19.50;38.90
27823;DHT22;29019;47.630;8.262;2024-01-11T16:34:23;19.50;39.00
27823;DHT22;29019;47.630;8.262;2024-01-11T16:38:24;19.30;40.10
27823;DHT22;29019;47.630;8.262;2024-01-11T16:42:26;19.10;40.50
27823;DHT22;29019;47.630;8.262;2024-01-11T16:46:26;19.10;40.60
27823;DHT22;29019;47.630;8.262;2024-01-11T16:50:27;19.10;40.70
27823;DHT22;29019;47.630;8.262;2024-01-11T16:54:28;19.10;40.80
27823;DHT22;29019;47.630;8.262;2024-01-11T16:58:28;19.10;40.80
27823;DHT22;29019;47.630;8.262;2024-01-11T17:02:29;19.10;40.80
27823;DHT22;29019;47.630;8.262;2024-01-11T17:06:33;19.10;40.90
27823;DHT22;29019;47.630;8.262;2024-01-11T17:10:35;19.10;41.00
27823;DHT22;29019;47.630;8.262;2024-01-11T17:14:38;19.10;40.90
27823;DHT22;29019;47.630;8.262;2024-01-11T17:18:38;19.00;40.90
27823;DHT22;29019;47.630;8.262;2024-01-11T17:22:39;19.00;41.00
27823;DHT22;29019;47.630;8.262;2024-01-11T17:26:40;19.10;41.10
27823;DHT22;29019;47.630;8.262;2024-01-11T17:30:40;19.00;41.10
27823;DHT22;29019;47.630;8.262;2024-01-11T17:34:41;19.10;41.10
27823;DHT22;29019;47.630;8.262;2024-01-11T17:38:42;19.00;41.10
27823;DHT22;29019;47.630;8.262;2024-01-11T17:42:43;19.10;41.20
27823;DHT22;29019;47.630;8.262;2024-01-11T17:46:43;19.00;41.20
27823;DHT22;29019;47.630;8.262;2024-01-11T17:50:44;19.10;41.20
27823;DHT22;29019;47.630;8.262;2024-01-11T17:54:45;19.00;41.20
27823;DHT22;29019;47.630;8.262;2024-01-11T17:58:46;19.00;41.20
27823;DHT22;29019;47.630;8.262;2024-01-11T18:02:46;19.00;41.20
27823;DHT22;29019;47.630;8.262;2024-01-11T18:06:47;19.00;41.30
27823;DHT22;29019;47.630;8.262;2024-01-11T18:10:48;19.00;41.30
27823;DHT22;29019;47.630;8.262;2024-01-11T18:14:50;19.10;41.30
27823;DHT22;29019;47.630;8.262;2024-01-11T18:18:51;19.10;41.30
27823;DHT22;29019;47.630;8.262;2024-01-11T18:22:54;19.00;41.30
27823;DHT22;29019;47.630;8.262;2024-01-11T18:26:54;19.00;41.40
27823;DHT22;29019;47.630;8.262;2024-01-11T18:30:55;19.00;41.40
27823;DHT22;29019;47.630;8.262;2024-01-11T18:34:56;19.00;41.40
27823;DHT22;29019;47.630;8.262;2024-01-11T18:38:57;19.00;41.40
27823;DHT22;29019;47.630;8.262;2024-01-11T18:42:59;19.00;41.30
27823;DHT22;29019;47.630;8.262;2024-01-11T18:47:01;19.00;41.40
27823;DHT22;29019;47.630;8.262;2024-01-11T18:51:02;19.00;41.40
27823;DHT22;29019;47.630;8.262;2024-01-11T18:55:04;19.00;41.40
27823;DHT22;29019;47.630;8.262;2024-01-11T18:59:05;19.00;41.40
27823;DHT22;29019;47.630;8.262;2024-01-11T19:03:06;19.00;41.40
27823;DHT22;29019;47.630;8.262;2024-01-11T19:07:07;19.00;41.50
27823;DHT22;29019;47.630;8.262;2024-01-11T19:11:07;19.00;41.50
27823;DHT22;29019;47.630;8.262;2024-01-11T19:15:08;19.00;41.50
27823;DHT22;29019;47.630;8.262;2024-01-11T19:19:09;19.00;41.50
27823;DHT22;29019;47.630;8.262;2024-01-11T19:23:10;19.00;41.40
27823;DHT22;29019;47.630;8.262;2024-01-11T19:27:10;19.00;41.40
27823;DHT22;29019;47.630;8.262;2024-01-11T19:31:11;19.00;41.40
27823;DHT22;29019;47.630;8.262;2024-01-11T19:35:12;19.00;41.50
27823;DHT22;29019;47.630;8.262;2024-01-11T19:39:12;19.00;41.50
27823;DHT22;29019;47.630;8.262;2024-01-11T19:43:13;19.00;41.60
27823;DHT22;29019;47.630;8.262;2024-01-11T19:47:14;19.00;41.60
27823;DHT22;29019;47.630;8.262;2024-01-11T19:51:15;19.00;41.60
27823;DHT22;29019;47.630;8.262;2024-01-11T19:55:16;19.00;41.60
27823;DHT22;29019;47.630;8.262;2024-01-11T19:59:17;19.00;41.60
27823;DHT22;29019;47.630;8.262;2024-01-11T20:03:19;19.00;41.60
27823;DHT22;29019;47.630;8.262;2024-01-11T20:07:21;19.00;41.60
27823;DHT22;29019;47.630;8.262;2024-01-11T20:11:22;19.00;41.60
27823;DHT22;29019;47.630;8.262;2024-01-11T20:15:24;19.00;41.60
27823;DHT22;29019;47.630;8.262;2024-01-11T20:19:24;19.00;41.60
27823;DHT22;29019;47.630;8.262;2024-01-11T20:23:25;19.00;41.70
27823;DHT22;29019;47.630;8.262;2024-01-11T20:27:26;19.00;41.70
27823;DHT22;29019;47.630;8.262;2024-01-11T20:31:26;19.00;41.60
27823;DHT22;29019;47.630;8.262;2024-01-11T20:35:27;19.00;41.60
27823;DHT22;29019;47.630;8.262;2024-01-11T20:39:28;19.10;41.60
27823;DHT22;29019;47.630;8.262;2024-01-11T20:43:29;19.00;41.70
27823;DHT22;29019;47.630;8.262;2024-01-11T20:47:29;19.00;41.70
27823;DHT22;29019;47.630;8.262;2024-01-11T20:51:30;18.90;41.80
27823;DHT22;29019;47.630;8.262;2024-01-11T20:55:31;18.90;41.90
27823;DHT22;29019;47.630;8.262;2024-01-11T20:59:32;18.90;42.00
27823;DHT22;29019;47.630;8.262;2024-01-11T21:03:34;18.80;42.00
27823;DHT22;29019;47.630;8.262;2024-01-11T21:07:35;18.80;42.10
27823;DHT22;29019;47.630;8.262;2024-01-11T21:11:36;18.90;42.10
27823;DHT22;29019;47.630;8.262;2024-01-11T21:15:36;18.90;42.00
27823;DHT22;29019;47.630;8.262;2024-01-11T21:19:37;19.00;41.90
27823;DHT22;29019;47.630;8.262;2024-01-11T21:23:38;19.00;41.80
27823;DHT22;29019;47.630;8.262;2024-01-11T21:27:39;19.00;41.80
27823;DHT22;29019;47.630;8.262;2024-01-11T21:31:40;19.00;41.90
27823;DHT22;29019;47.630;8.262;2024-01-11T21:35:40;19.00;41.90
27823;DHT22;29019;47.630;8.262;2024-01-11T21:39:43;19.00;41.90
27823;DHT22;29019;47.630;8.262;2024-01-11T21:43:43;19.00;41.90
27823;DHT22;29019;47.630;8.262;2024-01-11T21:47:44;19.00;41.90
27823;DHT22;29019;47.630;8.262;2024-01-11T21:51:45;19.00;41.90
27823;DHT22;29019;47.630;8.262;2024-01-11T21:55:47;19.00;41.80
27823;DHT22;29019;47.630;8.262;2024-01-11T21:59:49;19.00;41.90
27823;DHT22;29019;47.630;8.262;2024-01-11T22:03:49;19.00;41.90
27823;DHT22;29019;47.630;8.262;2024-01-11T22:07:51;19.00;41.90
27823;DHT22;29019;47.630;8.262;2024-01-11T22:11:52;19.00;41.90
27823;DHT22;29019;47.630;8.262;2024-01-11T22:15:53;19.00;41.80
27823;DHT22;29019;47.630;8.262;2024-01-11T22:19:53;19.00;41.80
27823;DHT22;29019;47.630;8.262;2024-01-11T22:23:55;18.90;41.90
27823;DHT22;29019;47.630;8.262;2024-01-11T22:27:55;18.90;42.10
27823;DHT22;29019;47.630;8.262;2024-01-11T22:31:56;18.90;42.20
27823;DHT22;29019;47.630;8.262;2024-01-11T22:35:56;18.80;42.30
27823;DHT22;29019;47.630;8.262;2024-01-11T22:39:57;18.80;42.30
27823;DHT22;29019;47.630;8.262;2024-01-11T22:43:58;18.80;42.30
27823;DHT22;29019;47.630;8.262;2024-01-11T22:48:00;18.80;42.30
27823;DHT22;29019;47.630;8.262;2024-01-11T22:52:00;18.80;42.30
27823;DHT22;29019;47.630;8.262;2024-01-11T22:56:01;18.80;42.40
27823;DHT22;29019;47.630;8.262;2024-01-11T23:00:02;18.80;42.40
27823;DHT22;29019;47.630;8.262;2024-01-11T23:04:20;18.80;42.30
27823;DHT22;29019;47.630;8.262;2024-01-11T23:08:21;18.80;42.40
27823;DHT22;29019;47.630;8.262;2024-01-11T23:12:22;18.80;42.40
27823;DHT22;29019;47.630;8.262;2024-01-11T23:16:22;18.80;42.30
27823;DHT22;29019;47.630;8.262;2024-01-11T23:20:23;18.80;42.20
27823;DHT22;29019;47.630;8.262;2024-01-11T23:24:24;18.80;42.30
27823;DHT22;29019;47.630;8.262;2024-01-11T23:28:24;18.80;42.30
27823;DHT22;29019;47.630;8.262;2024-01-11T23:32:26;18.80;42.30
27823;DHT22;29019;47.630;8.262;2024-01-11T23:36:28;18.80;42.30
27823;DHT22;29019;47.630;8.262;2024-01-11T23:40:28;18.80;42.90
27823;DHT22;29019;47.630;8.262;2024-01-11T23:44:29;18.80;42.40
27823;DHT22;29019;47.630;8.262;2024-01-11T23:48:30;18.80;42.40
27823;DHT22;29019;47.630;8.262;2024-01-11T23:52:35;18.80;42.40
27823;DHT22;29019;47.630;8.262;2024-01-11T23:56:39;18.80;42.40
